Time;durP1;ratioP1;P1;durP2;ratioP2;P2;SDS_P1;SDS_P2;PMS_P1;PMS_P2;Temp;Humidity;BMP_temperature;BMP_pressure;BME280_temperature;BME280_humidity;BME280_pressure;Samples;Min_cycle;Max_cycle;Signal;HPM_P1;HPM_P2
2023/04/09 00:01:46;;;;;;;2.20;1.60;;;12.20;36.70;;;;;;5013242;28;20911;-73
2023/04/09 00:04:12;;;;;;;2.47;1.47;;;12.20;37.00;;;;;;5013290;28;20174;-73
2023/04/09 00:06:37;;;;;;;1.97;1.17;;;12.40;36.90;;;;;;5013219;28;20196;-73
2023/04/09 00:09:03;;;;;;;2.93;1.60;;;12.30;36.80;;;;;;5013272;28;20648;-72
2023/04/09 00:11:28;;;;;;;1.90;1.20;;;12.30;35.90;;;;;;5013384;28;20181;-74
2023/04/09 00:13:54;;;;;;;2.30;1.40;;;12.70;37.20;;;;;;4995222;28;20185;-74
2023/04/09 00:16:20;;;;;;;1.97;1.30;;;12.50;36.20;;;;;;5012352;28;20300;-73
2023/04/09 00:18:46;;;;;;;2.40;1.43;;;12.20;35.90;;;;;;5013026;28;20205;-73
2023/04/09 00:21:11;;;;;;;2.13;1.40;;;12.60;36.80;;;;;;5013173;28;20462;-73
2023/04/09 00:23:37;;;;;;;2.00;1.40;;;12.20;36.10;;;;;;5012554;28;20181;-73
2023/04/09 00:26:03;;;;;;;2.47;1.60;;;12.60;35.80;;;;;;5013025;28;20189;-74
2023/04/09 00:28:28;;;;;;;2.00;1.23;;;12.30;35.20;;;;;;5013169;28;20242;-74
2023/04/09 00:30:54;;;;;;;1.90;1.20;;;12.40;35.30;;;;;;5013267;28;20181;-74
2023/04/09 00:33:20;;;;;;;1.87;1.10;;;12.50;36.00;;;;;;5012677;28;20209;-73
2023/04/09 00:35:45;;;;;;;2.00;1.20;;;12.30;35.60;;;;;;5013226;28;20197;-74
2023/04/09 00:38:11;;;;;;;2.07;1.30;;;12.40;35.30;;;;;;5013186;28;20211;-73
2023/04/09 00:40:36;;;;;;;2.13;1.40;;;12.20;35.10;;;;;;5013183;28;20174;-74
2023/04/09 00:43:02;;;;;;;1.87;1.10;;;12.20;35.40;;;;;;5012581;28;20181;-73
2023/04/09 00:45:28;;;;;;;2.17;1.40;;;12.30;35.80;;;;;;5012110;28;20244;-71
2023/04/09 00:47:53;;;;;;;2.10;1.33;;;12.00;35.50;;;;;;5012342;28;20201;-73
2023/04/09 00:50:20;;;;;;;2.20;1.40;;;11.90;35.90;;;;;;5012636;28;20184;-75
2023/04/09 00:52:46;;;;;;;1.90;1.20;;;12.00;35.80;;;;;;5012036;28;20211;-74
2023/04/09 00:55:12;;;;;;;2.07;1.37;;;12.10;36.00;;;;;;5012116;28;20676;-73
2023/04/09 00:57:38;;;;;;;2.10;1.40;;;12.30;36.90;;;;;;5012317;28;20235;-73
2023/04/09 01:00:06;;;;;;;2.00;1.30;;;12.20;36.50;;;;;;5012327;28;20494;-73
2023/04/09 01:02:32;;;;;;;2.00;1.27;;;12.10;37.00;;;;;;5012144;28;20173;-74
2023/04/09 01:04:58;;;;;;;2.10;1.30;;;12.10;35.90;;;;;;5012345;28;20466;-75
2023/04/09 01:07:29;;;;;;;2.00;1.20;;;12.20;36.90;;;;;;5012081;28;20431;-74
2023/04/09 01:10:23;;;;;;;2.43;2.00;;;12.10;36.70;;;;;;5012546;28;20404;-74
2023/04/09 01:13:19;;;;;;;2.00;1.27;;;12.00;35.80;;;;;;5011954;28;20467;-73
2023/04/09 01:15:49;;;;;;;2.00;1.33;;;12.20;35.10;;;;;;5011657;28;20439;-72
2023/04/09 01:18:19;;;;;;;2.10;1.40;;;12.60;36.90;;;;;;5012020;28;20483;-73
2023/04/09 01:20:57;;;;;;;2.60;1.40;;;12.30;37.00;;;;;;5012078;28;20393;-73
2023/04/09 01:23:53;;;;;;;1.90;1.10;;;12.10;36.50;;;;;;5011940;28;20408;-73
2023/04/09 01:26:44;;;;;;;1.80;1.10;;;11.80;36.40;;;;;;5011817;28;20205;-73
2023/04/09 01:29:10;;;;;;;1.90;1.10;;;11.70;36.70;;;;;;5004584;28;20436;-73
2023/04/09 01:31:38;;;;;;;1.90;1.23;;;11.90;36.90;;;;;;4993732;28;20423;-73
2023/04/09 01:34:07;;;;;;;3.20;1.93;;;11.90;36.70;;;;;;5003409;28;20969;-73
2023/04/09 01:36:34;;;;;;;2.17;1.40;;;12.10;36.70;;;;;;5011783;28;20443;-72
2023/04/09 01:39:01;;;;;;;2.40;1.60;;;12.40;36.70;;;;;;4993255;28;20875;-74
2023/04/09 01:41:29;;;;;;;2.00;1.23;;;12.00;36.20;;;;;;4991657;28;20520;-73
2023/04/09 01:43:55;;;;;;;2.00;1.40;;;11.90;35.90;;;;;;4991709;28;20500;-74
2023/04/09 01:46:22;;;;;;;1.97;1.27;;;11.80;36.20;;;;;;4991779;28;20826;-72
2023/04/09 01:48:48;;;;;;;2.30;1.53;;;11.80;36.50;;;;;;4991990;28;20495;-73
2023/04/09 01:51:15;;;;;;;2.10;1.40;;;11.50;36.70;;;;;;4992239;28;20413;-73
2023/04/09 01:53:41;;;;;;;2.10;1.33;;;11.40;38.00;;;;;;4991461;28;20783;-73
2023/04/09 01:56:07;;;;;;;1.90;1.20;;;11.70;38.00;;;;;;4991924;28;20445;-73
2023/04/09 01:58:33;;;;;;;2.67;1.70;;;11.70;38.00;;;;;;4991072;28;20202;-74
2023/04/09 02:01:26;;;;;;;2.03;1.30;;;12.00;37.90;;;;;;4992002;28;20919;-73
2023/04/09 02:04:29;;;;;;;2.37;1.50;;;12.00;36.60;;;;;;4991938;28;20416;-74
2023/04/09 02:07:24;;;;;;;3.30;1.97;;;11.90;37.70;;;;;;4991766;28;20435;-75
2023/04/09 02:09:53;;;;;;;2.30;1.50;;;11.80;38.40;;;;;;4991575;28;20517;-74
2023/04/09 02:12:19;;;;;;;2.10;1.30;;;11.80;39.20;;;;;;4991890;28;20405;-74
2023/04/09 02:14:47;;;;;;;2.47;1.50;;;11.90;37.40;;;;;;4991512;28;20879;-75
2023/04/09 02:17:13;;;;;;;2.20;1.40;;;12.10;36.60;;;;;;4991368;28;20440;-74
2023/04/09 02:19:39;;;;;;;2.20;1.40;;;11.90;37.90;;;;;;4992322;28;20931;-73
2023/04/09 02:22:05;;;;;;;2.43;1.40;;;12.00;38.40;;;;;;4991785;28;20213;-73
2023/04/09 02:24:31;;;;;;;2.00;1.40;;;12.40;37.00;;;;;;4991466;28;20898;-73
2023/04/09 02:26:56;;;;;;;2.03;1.30;;;11.90;37.10;;;;;;4991654;28;20186;-72
2023/04/09 02:29:22;;;;;;;1.90;1.10;;;12.20;37.40;;;;;;4991863;28;20224;-73
2023/04/09 02:31:48;;;;;;;2.20;1.50;;;11.90;36.30;;;;;;4991265;28;20224;-74
2023/04/09 02:34:14;;;;;;;2.60;2.00;;;11.90;37.10;;;;;;4991155;28;20178;-74
2023/04/09 02:36:40;;;;;;;1.90;1.20;;;12.00;36.70;;;;;;4991371;28;20613;-73
2023/04/09 02:39:06;;;;;;;2.13;1.50;;;12.10;36.70;;;;;;4990978;28;20557;-73
2023/04/09 02:41:31;;;;;;;2.13;1.37;;;12.10;35.80;;;;;;4991865;28;20413;-73
2023/04/09 02:43:57;;;;;;;2.00;1.30;;;12.30;35.60;;;;;;4982967;28;20177;-73
2023/04/09 02:46:22;;;;;;;2.00;1.30;;;12.20;35.80;;;;;;4986370;28;20202;-73
2023/04/09 02:48:48;;;;;;;2.50;1.63;;;12.10;36.90;;;;;;4994491;28;20524;-73
2023/04/09 02:51:14;;;;;;;2.10;1.43;;;12.50;36.20;;;;;;4994804;28;20180;-73
2023/04/09 02:53:40;;;;;;;2.00;1.27;;;12.30;36.00;;;;;;4989770;28;20177;-73
2023/04/09 02:56:05;;;;;;;2.00;1.30;;;12.30;36.00;;;;;;5002827;28;20438;-72
2023/04/09 02:58:31;;;;;;;2.10;1.40;;;12.10;35.90;;;;;;4995756;28;20221;-73
2023/04/09 03:00:56;;;;;;;2.03;1.27;;;12.10;35.50;;;;;;4992637;28;20656;-73
2023/04/09 03:03:22;;;;;;;2.13;1.40;;;12.60;35.60;;;;;;4985575;28;20237;-73
2023/04/09 03:05:47;;;;;;;2.07;1.27;;;12.10;35.50;;;;;;4978822;28;20208;-73
2023/04/09 03:08:14;;;;;;;2.10;1.30;;;12.20;35.00;;;;;;4990792;28;20605;-72
2023/04/09 03:10:40;;;;;;;1.90;1.20;;;12.30;36.60;;;;;;4987547;28;20553;-74
2023/04/09 03:13:06;;;;;;;2.00;1.20;;;12.00;37.10;;;;;;4995429;28;20421;-73
2023/04/09 03:15:31;;;;;;;2.07;1.33;;;12.30;37.50;;;;;;4999424;28;20213;-71
2023/04/09 03:17:57;;;;;;;2.00;1.20;;;11.90;36.20;;;;;;4990389;28;20190;-74
2023/04/09 03:20:22;;;;;;;2.00;1.27;;;12.10;36.20;;;;;;4991228;28;20208;-74
2023/04/09 03:22:48;;;;;;;2.60;1.93;;;12.00;36.90;;;;;;4989872;28;20185;-73
2023/04/09 03:25:13;;;;;;;2.00;1.30;;;12.00;37.60;;;;;;5000214;28;20173;-73
2023/04/09 03:27:39;;;;;;;2.40;1.47;;;11.90;37.30;;;;;;4986675;28;20469;-73
2023/04/09 03:30:05;;;;;;;2.03;1.30;;;11.90;36.70;;;;;;4993025;28;20169;-73
2023/04/09 03:32:31;;;;;;;1.90;1.10;;;11.80;36.80;;;;;;4999307;28;20192;-73
2023/04/09 03:34:56;;;;;;;2.17;1.37;;;12.40;37.40;;;;;;4999512;28;20420;-73
2023/04/09 03:37:22;;;;;;;2.50;1.60;;;12.20;37.20;;;;;;4986858;28;20609;-72
2023/04/09 03:39:47;;;;;;;2.03;1.30;;;12.30;36.90;;;;;;4990623;28;20170;-74
2023/04/09 03:42:13;;;;;;;2.00;1.30;;;11.90;36.90;;;;;;4987202;28;20640;-73
2023/04/09 03:44:39;;;;;;;2.00;1.30;;;12.10;37.60;;;;;;4995999;28;20208;-73
2023/04/09 03:47:05;;;;;;;2.30;1.60;;;12.00;37.50;;;;;;4998666;28;20197;-72
2023/04/09 03:49:30;;;;;;;2.20;1.47;;;11.90;37.50;;;;;;4984920;28;20181;-73
2023/04/09 03:51:56;;;;;;;2.10;1.30;;;11.70;37.60;;;;;;4988274;28;20436;-74
2023/04/09 03:54:21;;;;;;;2.30;1.50;;;11.80;37.30;;;;;;4997977;28;20178;-73
2023/04/09 03:56:47;;;;;;;2.13;1.30;;;12.10;38.10;;;;;;4992992;28;20228;-73
2023/04/09 03:59:13;;;;;;;2.40;1.50;;;11.70;37.80;;;;;;4988696;28;20245;-73
2023/04/09 04:01:38;;;;;;;2.20;1.20;;;11.80;37.30;;;;;;4998518;28;20179;-74
2023/04/09 04:04:04;;;;;;;2.43;1.63;;;11.90;37.10;;;;;;4993987;28;20209;-75
2023/04/09 04:06:34;;;;;;;2.23;1.53;;;11.90;37.20;;;;;;4994135;28;20573;-73
2023/04/09 04:08:59;;;;;;;2.00;1.20;;;12.00;36.30;;;;;;4988880;28;20190;-74
2023/04/09 04:11:25;;;;;;;1.90;1.20;;;12.10;35.90;;;;;;4984807;28;20179;-73
2023/04/09 04:13:51;;;;;;;2.00;1.20;;;12.00;37.20;;;;;;4994478;28;20182;-74
2023/04/09 04:16:16;;;;;;;2.10;1.50;;;12.10;35.80;;;;;;4996650;28;20217;-73
2023/04/09 04:18:42;;;;;;;2.83;1.60;;;12.00;37.10;;;;;;5000178;28;20243;-73
2023/04/09 04:21:12;;;;;;;2.00;1.30;;;12.00;37.10;;;;;;4991185;28;20561;-73
2023/04/09 04:23:38;;;;;;;2.40;1.37;;;12.20;36.50;;;;;;4996361;28;20170;-75
2023/04/09 04:26:09;;;;;;;2.00;1.30;;;12.00;37.50;;;;;;5007116;28;20469;-73
2023/04/09 04:28:36;;;;;;;2.40;1.70;;;11.90;37.80;;;;;;5001490;28;20185;-72
2023/04/09 04:31:02;;;;;;;2.00;1.30;;;11.90;37.10;;;;;;4997043;28;20429;-75
2023/04/09 04:33:27;;;;;;;2.43;1.30;;;12.10;38.00;;;;;;5000053;28;20424;-72
2023/04/09 04:35:53;;;;;;;3.43;1.77;;;11.90;37.80;;;;;;4991776;28;20208;-73
2023/04/09 04:38:19;;;;;;;2.70;2.00;;;12.00;37.50;;;;;;4992003;28;20209;-74
2023/04/09 04:40:44;;;;;;;4.40;2.53;;;11.90;37.20;;;;;;5005590;22;20172;-66
2023/04/09 04:43:10;;;;;;;2.30;1.60;;;11.90;37.70;;;;;;4989318;28;20494;-67
2023/04/09 04:45:35;;;;;;;2.83;1.70;;;12.10;38.30;;;;;;4993013;28;20189;-67
2023/04/09 04:48:01;;;;;;;2.17;1.40;;;12.00;37.10;;;;;;4993242;28;20294;-67
2023/04/09 04:50:27;;;;;;;1.93;1.10;;;11.90;38.00;;;;;;4993381;28;20176;-67
2023/04/09 04:52:52;;;;;;;2.80;1.73;;;11.80;38.30;;;;;;4993147;28;20706;-67
2023/04/09 04:55:18;;;;;;;1.93;1.23;;;12.00;38.30;;;;;;4993242;28;20181;-67
2023/04/09 04:57:43;;;;;;;2.30;1.70;;;12.00;38.20;;;;;;4979856;28;20691;-67
2023/04/09 05:00:09;;;;;;;2.50;1.70;;;11.90;37.70;;;;;;4981842;28;20179;-67
2023/04/09 05:02:35;;;;;;;2.53;1.63;;;12.00;37.90;;;;;;4991856;28;20205;-67
2023/04/09 05:05:01;;;;;;;2.60;1.83;;;12.00;37.40;;;;;;4992819;28;20188;-67
2023/04/09 05:07:26;;;;;;;2.47;1.63;;;12.10;38.10;;;;;;4992737;28;20540;-66
2023/04/09 05:09:52;;;;;;;2.00;1.37;;;12.00;37.10;;;;;;4992875;28;20169;-67
2023/04/09 05:12:18;;;;;;;2.00;1.20;;;12.10;37.30;;;;;;4992177;28;20189;-66
2023/04/09 05:14:43;;;;;;;2.20;1.50;;;12.10;37.00;;;;;;4992427;28;20177;-67
2023/04/09 05:17:09;;;;;;;2.20;1.43;;;12.00;37.90;;;;;;4992686;28;20185;-67
2023/04/09 05:19:34;;;;;;;2.10;1.50;;;12.00;37.50;;;;;;4992759;28;20695;-67
2023/04/09 05:22:00;;;;;;;2.30;1.60;;;12.10;37.30;;;;;;4992357;28;20301;-67
2023/04/09 05:24:26;;;;;;;2.57;1.70;;;12.10;38.00;;;;;;4992454;28;20521;-67
2023/04/09 05:26:51;;;;;;;2.30;1.63;;;12.00;37.70;;;;;;4992905;28;20629;-67
2023/04/09 05:29:17;;;;;;;1.90;1.20;;;12.10;36.90;;;;;;4998187;28;20182;-67
2023/04/09 05:31:42;;;;;;;2.40;1.50;;;12.10;36.90;;;;;;4992275;28;20204;-67
2023/04/09 05:34:08;;;;;;;2.00;1.20;;;12.10;36.90;;;;;;4992208;28;20173;-67
2023/04/09 05:36:34;;;;;;;1.90;1.17;;;12.00;38.20;;;;;;4992274;28;20185;-67
2023/04/09 05:38:59;;;;;;;2.03;1.33;;;12.10;37.60;;;;;;4992585;28;20241;-67
2023/04/09 05:41:25;;;;;;;2.10;1.50;;;12.30;37.30;;;;;;4992110;28;20217;-66
2023/04/09 05:43:51;;;;;;;2.87;1.67;;;12.20;36.60;;;;;;4992347;28;20171;-67
2023/04/09 05:46:16;;;;;;;2.23;1.50;;;12.20;36.60;;;;;;4992273;28;20210;-67
2023/04/09 05:48:42;;;;;;;2.63;1.70;;;12.20;36.70;;;;;;4992224;28;20189;-67
2023/04/09 05:51:08;;;;;;;2.00;1.40;;;12.30;36.50;;;;;;4992360;28;20240;-66
2023/04/09 05:53:34;;;;;;;2.20;1.50;;;12.40;36.70;;;;;;4992553;28;20716;-67
2023/04/09 05:56:00;;;;;;;2.30;1.50;;;12.30;37.30;;;;;;4991888;28;20496;-67
2023/04/09 05:58:28;;;;;;;1.90;1.30;;;12.30;36.80;;;;;;4992202;28;20687;-66
2023/04/09 06:00:53;;;;;;;4.53;1.60;;;12.40;37.40;;;;;;4992061;28;20194;-67
2023/04/09 06:03:19;;;;;;;2.10;1.40;;;12.60;35.90;;;;;;4991840;28;20839;-67
2023/04/09 06:05:45;;;;;;;1.97;1.37;;;12.60;35.50;;;;;;4992079;28;20186;-67
2023/04/09 06:08:12;;;;;;;1.77;1.13;;;12.70;34.90;;;;;;4992490;28;20528;-67
2023/04/09 06:10:38;;;;;;;2.00;1.60;;;12.80;34.30;;;;;;4991679;28;20448;-67
2023/04/09 06:13:04;;;;;;;3.90;1.60;;;12.80;33.30;;;;;;4991607;28;20460;-67
2023/04/09 06:15:30;;;;;;;2.30;1.50;;;12.80;35.00;;;;;;4992307;28;20178;-67
2023/04/09 06:17:56;;;;;;;2.23;1.50;;;12.80;34.00;;;;;;4980329;28;20476;-66
2023/04/09 06:20:21;;;;;;;1.80;1.30;;;13.00;34.40;;;;;;4967868;28;20518;-67
2023/04/09 06:22:47;;;;;;;2.30;1.43;;;13.10;34.20;;;;;;4966623;28;20202;-67
2023/04/09 06:25:13;;;;;;;2.00;1.30;;;13.20;34.10;;;;;;4970278;28;20194;-66
2023/04/09 06:27:38;;;;;;;1.90;1.30;;;12.90;34.20;;;;;;4963100;28;20668;-66
2023/04/09 06:30:04;;;;;;;2.30;1.80;;;12.70;33.80;;;;;;4964954;28;20179;-67
2023/04/09 06:32:30;;;;;;;2.80;1.80;;;12.60;32.90;;;;;;4966046;28;20221;-66
2023/04/09 06:34:55;;;;;;;2.57;1.43;;;12.80;32.60;;;;;;4970174;28;20418;-67
2023/04/09 06:37:21;;;;;;;2.17;1.50;;;12.70;33.10;;;;;;4963821;28;20223;-67
2023/04/09 06:39:47;;;;;;;2.20;1.53;;;12.70;33.30;;;;;;4970980;28;20179;-67
2023/04/09 06:42:12;;;;;;;2.20;1.40;;;12.70;33.10;;;;;;4970018;28;20215;-67
2023/04/09 06:44:38;;;;;;;2.53;1.30;;;12.90;32.90;;;;;;4970579;28;20839;-67
2023/04/09 06:47:03;;;;;;;1.93;1.40;;;12.90;33.10;;;;;;4970345;28;20189;-66
2023/04/09 06:49:29;;;;;;;2.27;1.50;;;12.10;33.30;;;;;;4971105;28;20190;-66
2023/04/09 06:51:55;;;;;;;2.00;1.47;;;12.50;33.60;;;;;;4969544;28;20233;-67
2023/04/09 06:54:20;;;;;;;2.67;1.63;;;12.20;33.60;;;;;;4963909;28;20194;-67
2023/04/09 06:56:46;;;;;;;1.97;1.30;;;11.90;34.00;;;;;;4970580;28;20549;-67
2023/04/09 06:59:12;;;;;;;2.50;1.50;;;11.70;33.90;;;;;;4967694;28;20222;-67
2023/04/09 07:01:38;;;;;;;1.83;1.27;;;12.20;34.40;;;;;;4969779;28;20233;-66
2023/04/09 07:04:04;;;;;;;2.17;1.37;;;12.00;34.20;;;;;;4965292;28;20590;-67
2023/04/09 07:06:30;;;;;;;2.10;1.40;;;11.90;34.10;;;;;;4970062;28;20426;-67
2023/04/09 07:08:55;;;;;;;2.30;1.67;;;12.20;33.20;;;;;;4965956;28;20430;-67
2023/04/09 07:11:21;;;;;;;1.80;1.23;;;12.90;32.30;;;;;;4971336;28;20427;-67
2023/04/09 07:13:47;;;;;;;1.90;1.30;;;12.60;32.10;;;;;;4966652;28;20461;-67
2023/04/09 07:16:12;;;;;;;1.93;1.40;;;12.80;30.80;;;;;;4965481;28;20261;-67
2023/04/09 07:18:38;;;;;;;2.03;1.20;;;12.90;32.70;;;;;;4974281;28;20214;-67
2023/04/09 07:21:04;;;;;;;2.10;1.37;;;13.00;31.70;;;;;;4969750;28;20631;-67
2023/04/09 07:23:32;;;;;;;2.20;1.30;;;13.40;31.70;;;;;;4973821;28;20187;-67
2023/04/09 07:26:03;;;;;;;1.90;1.20;;;13.80;30.30;;;;;;4971184;28;20775;-67
2023/04/09 07:28:29;;;;;;;3.07;1.60;;;14.10;29.60;;;;;;4974273;28;20442;-67
2023/04/09 07:30:55;;;;;;;1.80;1.30;;;14.20;29.10;;;;;;4968988;28;20438;-67
2023/04/09 07:33:21;;;;;;;1.97;1.30;;;14.10;29.90;;;;;;4974279;28;20636;-67
2023/04/09 07:35:46;;;;;;;2.00;1.40;;;13.60;30.40;;;;;;4964806;28;20432;-67
2023/04/09 07:38:12;;;;;;;2.00;1.40;;;13.60;29.40;;;;;;4967393;28;20219;-66
2023/04/09 07:40:37;;;;;;;3.00;1.97;;;13.60;29.10;;;;;;4970287;28;20175;-67
2023/04/09 07:43:03;;;;;;;2.23;1.30;;;14.00;28.30;;;;;;4966113;28;20182;-67
2023/04/09 07:45:29;;;;;;;1.90;1.30;;;13.70;28.40;;;;;;4973412;28;20187;-67
2023/04/09 07:47:54;;;;;;;1.90;1.40;;;13.50;29.40;;;;;;4970882;28;20432;-67
2023/04/09 07:50:20;;;;;;;2.10;1.47;;;13.50;29.10;;;;;;4972274;28;20190;-66
2023/04/09 07:52:46;;;;;;;1.90;1.30;;;13.90;28.40;;;;;;4973046;28;20231;-67
2023/04/09 07:55:11;;;;;;;2.10;1.50;;;13.60;28.50;;;;;;4967684;28;20231;-67
2023/04/09 07:57:37;;;;;;;2.33;1.60;;;13.80;28.60;;;;;;4964968;28;20552;-67
2023/04/09 08:00:05;;;;;;;2.03;1.43;;;13.80;28.60;;;;;;4969142;28;20194;-67
2023/04/09 08:02:31;;;;;;;2.97;1.87;;;14.00;28.30;;;;;;4960892;28;20252;-67
2023/04/09 08:04:56;;;;;;;2.00;1.30;;;14.70;27.40;;;;;;4973340;28;20468;-67
2023/04/09 08:07:22;;;;;;;2.00;1.30;;;14.80;27.50;;;;;;4970900;28;20219;-67
2023/04/09 08:09:48;;;;;;;2.40;1.60;;;14.30;27.60;;;;;;4973054;28;20186;-67
2023/04/09 08:12:15;;;;;;;1.83;1.20;;;14.50;27.90;;;;;;4965364;28;20779;-67
2023/04/09 08:14:40;;;;;;;2.10;1.47;;;14.40;28.60;;;;;;4973124;28;20551;-67
2023/04/09 08:17:06;;;;;;;2.30;1.43;;;13.40;30.00;;;;;;4968435;28;20547;-68
2023/04/09 08:19:31;;;;;;;2.57;1.67;;;14.00;29.20;;;;;;4966002;28;20221;-67
2023/04/09 08:21:57;;;;;;;1.90;1.20;;;14.30;28.40;;;;;;4969459;28;20214;-67
2023/04/09 08:24:23;;;;;;;2.00;1.30;;;14.40;28.10;;;;;;4970997;28;20178;-67
2023/04/09 08:26:49;;;;;;;2.10;1.30;;;14.50;27.50;;;;;;4969738;28;20636;-68
2023/04/09 08:29:15;;;;;;;1.90;1.20;;;14.70;27.80;;;;;;4968726;28;20186;-67
2023/04/09 08:31:40;;;;;;;2.67;2.00;;;14.30;27.70;;;;;;4969492;28;20216;-67
2023/04/09 08:34:06;;;;;;;2.00;1.30;;;14.40;28.00;;;;;;4967200;28;20189;-67
2023/04/09 08:36:34;;;;;;;2.00;1.30;;;14.80;29.10;;;;;;4966323;28;20564;-68
2023/04/09 08:38:59;;;;;;;1.97;1.27;;;14.80;28.20;;;;;;4967489;28;20479;-66
2023/04/09 08:41:29;;;;;;;2.00;1.40;;;14.40;27.40;;;;;;4969693;28;20453;-66
2023/04/09 08:43:55;;;;;;;2.20;1.50;;;14.30;24.80;;;;;;4966954;28;20659;-66
2023/04/09 08:46:22;;;;;;;2.10;1.30;;;13.80;24.30;;;;;;4964482;28;20457;-66
2023/04/09 08:48:49;;;;;;;1.90;1.20;;;13.50;24.70;;;;;;4968047;28;20437;-67
2023/04/09 08:51:16;;;;;;;1.90;1.20;;;13.40;25.30;;;;;;4964440;28;20501;-67
2023/04/09 08:53:58;;;;;;;2.10;1.30;;;13.70;24.30;;;;;;4972453;28;20602;-68
2023/04/09 08:56:25;;;;;;;2.10;1.50;;;14.20;24.80;;;;;;4971263;28;20461;-67
2023/04/09 08:58:52;;;;;;;2.10;1.37;;;14.00;23.30;;;;;;4967619;28;20543;-67
2023/04/09 09:01:26;;;;;;;2.17;1.40;;;14.20;23.70;;;;;;4963044;28;20440;-67
2023/04/09 09:03:56;;;;;;;1.90;1.20;;;14.30;23.40;;;;;;4968813;28;20824;-67
2023/04/09 09:06:25;;;;;;;2.33;1.43;;;14.40;23.80;;;;;;4970040;28;20990;-67
2023/04/09 09:09:11;;;;;;;1.90;1.20;;;14.10;21.30;;;;;;4971829;28;20410;-67
2023/04/09 09:11:38;;;;;;;1.90;1.20;;;13.70;23.50;;;;;;4969724;28;20540;-67
2023/04/09 09:14:09;;;;;;;2.10;1.23;;;13.70;23.90;;;;;;4972716;28;20490;-68
2023/04/09 09:16:38;;;;;;;4.30;2.30;;;14.00;23.40;;;;;;4969180;28;20490;-67
2023/04/09 09:19:04;;;;;;;2.20;1.47;;;13.90;23.00;;;;;;4966379;28;20852;-67
2023/04/09 09:21:30;;;;;;;1.97;1.30;;;14.10;23.40;;;;;;4959604;28;20587;-67
2023/04/09 09:23:56;;;;;;;3.03;1.77;;;14.10;23.20;;;;;;4965549;28;20509;-67
2023/04/09 09:26:28;;;;;;;2.20;1.50;;;14.10;23.50;;;;;;4965485;28;20183;-67
2023/04/09 09:28:54;;;;;;;2.93;1.63;;;14.30;21.90;;;;;;4972573;28;20430;-67
2023/04/09 09:31:21;;;;;;;1.90;1.30;;;14.60;22.10;;;;;;4971550;28;20448;-67
2023/04/09 09:33:49;;;;;;;2.13;1.43;;;14.90;21.80;;;;;;4969387;28;20437;-68
2023/04/09 09:36:15;;;;;;;2.10;1.50;;;15.30;21.50;;;;;;4971026;28;20950;-67
2023/04/09 09:38:51;;;;;;;2.07;1.37;;;15.10;22.50;;;;;;4955537;28;20546;-67
2023/04/09 09:41:17;;;;;;;2.47;1.47;;;15.20;21.80;;;;;;4969105;28;20598;-67
2023/04/09 09:43:43;;;;;;;2.20;1.50;;;15.80;20.70;;;;;;4973351;28;20499;-67
2023/04/09 09:46:10;;;;;;;2.10;1.50;;;15.70;20.30;;;;;;4971464;28;20451;-67
2023/04/09 09:48:36;;;;;;;2.07;1.47;;;15.20;22.50;;;;;;4971244;28;20193;-67
2023/04/09 09:51:07;;;;;;;2.10;1.40;;;14.20;21.80;;;;;;4970781;28;21005;-67
2023/04/09 09:53:35;;;;;;;2.00;1.40;;;13.80;24.60;;;;;;4970586;28;20295;-67
2023/04/09 09:56:03;;;;;;;2.00;1.40;;;13.90;24.90;;;;;;4966370;28;20426;-70
2023/04/09 09:58:53;;;;;;;1.80;1.20;;;13.60;24.80;;;;;;4969673;28;20466;-67
2023/04/09 10:01:22;;;;;;;2.10;1.57;;;14.10;25.10;;;;;;4968515;28;20441;-67
2023/04/09 10:03:50;;;;;;;1.83;1.17;;;14.10;24.50;;;;;;4967411;28;20421;-67
2023/04/09 10:06:16;;;;;;;1.90;1.23;;;13.90;24.80;;;;;;4968610;28;20784;-67
2023/04/09 10:08:42;;;;;;;1.90;1.30;;;14.00;23.60;;;;;;4971748;28;20504;-67
2023/04/09 10:11:09;;;;;;;1.90;1.20;;;13.60;24.10;;;;;;4964468;28;20523;-67
2023/04/09 10:13:38;;;;;;;2.00;1.60;;;13.50;23.40;;;;;;4967390;28;20430;-67
2023/04/09 10:16:06;;;;;;;2.10;1.60;;;13.70;22.90;;;;;;4972053;28;20449;-67
2023/04/09 10:18:34;;;;;;;2.20;1.40;;;14.60;23.30;;;;;;4966692;28;20847;-67
2023/04/09 10:21:16;;;;;;;1.90;1.23;;;15.50;22.70;;;;;;4953797;28;20439;-67
2023/04/09 10:23:43;;;;;;;2.63;1.63;;;16.00;20.50;;;;;;4964340;28;20463;-67
2023/04/09 10:26:09;;;;;;;2.00;1.30;;;15.30;21.70;;;;;;4971217;28;20539;-68
2023/04/09 10:28:37;;;;;;;2.37;1.60;;;14.90;22.00;;;;;;4972221;28;20853;-67
2023/04/09 10:31:04;;;;;;;1.97;1.37;;;14.80;21.60;;;;;;4967637;28;20446;-67
2023/04/09 10:33:30;;;;;;;2.57;1.60;;;15.70;22.90;;;;;;4969490;28;20433;-67
2023/04/09 10:36:03;;;;;;;4.70;1.37;;;15.40;20.50;;;;;;4972072;28;20747;-68
2023/04/09 10:38:40;;;;;;;1.90;1.30;;;15.20;20.60;;;;;;4973351;28;20983;-67
2023/04/09 10:41:06;;;;;;;2.73;1.30;;;14.70;21.70;;;;;;4970520;28;20821;-67
2023/04/09 10:43:35;;;;;;;2.43;1.50;;;14.90;21.10;;;;;;4966884;28;20922;-67
2023/04/09 10:46:02;;;;;;;1.80;1.10;;;15.40;21.90;;;;;;4969812;28;20500;-67
2023/04/09 10:48:32;;;;;;;2.20;1.53;;;15.90;20.10;;;;;;4966314;28;20810;-67
2023/04/09 10:50:58;;;;;;;2.03;1.40;;;15.50;19.80;;;;;;4974975;28;20437;-67
2023/04/09 10:53:25;;;;;;;2.20;1.40;;;15.70;19.80;;;;;;4969091;28;20481;-67
2023/04/09 10:55:52;;;;;;;2.27;1.40;;;15.20;18.80;;;;;;4967210;28;20189;-67
2023/04/09 10:58:18;;;;;;;2.17;1.40;;;15.00;19.40;;;;;;4973624;28;20468;-67
2023/04/09 11:00:46;;;;;;;2.70;1.60;;;14.90;19.40;;;;;;4973750;28;20414;-67
2023/04/09 11:03:29;;;;;;;2.30;1.40;;;15.40;21.30;;;;;;4970364;28;20418;-67
2023/04/09 11:05:57;;;;;;;2.20;1.40;;;15.20;18.80;;;;;;4973813;28;20774;-67
2023/04/09 11:08:22;;;;;;;2.60;1.70;;;15.20;20.10;;;;;;4967576;28;20427;-67
2023/04/09 11:10:48;;;;;;;2.27;1.40;;;15.30;18.90;;;;;;4968912;28;20525;-67
2023/04/09 11:13:16;;;;;;;2.40;1.60;;;15.60;20.40;;;;;;4970803;28;20181;-67
2023/04/09 11:15:42;;;;;;;2.30;1.40;;;15.40;17.90;;;;;;4963190;28;20442;-67
2023/04/09 11:18:12;;;;;;;2.97;1.63;;;15.40;18.70;;;;;;4973622;28;20504;-67
2023/04/09 11:20:39;;;;;;;2.73;1.70;;;15.70;19.10;;;;;;4965216;28;20442;-67
2023/04/09 11:23:04;;;;;;;2.30;1.40;;;16.30;19.40;;;;;;4972397;28;20434;-67
2023/04/09 11:25:32;;;;;;;2.60;1.43;;;17.40;17.00;;;;;;4968481;28;20417;-67
2023/04/09 11:27:58;;;;;;;2.67;1.40;;;18.30;18.20;;;;;;4969383;28;20175;-67
2023/04/09 11:30:23;;;;;;;2.90;1.50;;;18.10;15.00;;;;;;4965721;28;20433;-67
2023/04/09 11:32:50;;;;;;;3.87;1.87;;;18.20;15.60;;;;;;4972118;28;20438;-67
2023/04/09 11:35:20;;;;;;;3.70;1.40;;;18.00;16.30;;;;;;4974680;28;20430;-67
2023/04/09 11:37:47;;;;;;;2.80;1.40;;;17.60;15.80;;;;;;4967283;28;20440;-67
2023/04/09 11:40:23;;;;;;;3.93;1.77;;;17.50;16.80;;;;;;4966321;28;20852;-67
2023/04/09 11:42:50;;;;;;;3.00;1.67;;;17.50;16.80;;;;;;4968410;28;20449;-67
2023/04/09 11:45:16;;;;;;;2.80;1.40;;;17.60;17.00;;;;;;4963964;28;20965;-67
2023/04/09 11:47:43;;;;;;;2.80;1.40;;;17.30;16.00;;;;;;4966722;28;20788;-67
2023/04/09 11:50:10;;;;;;;2.70;1.40;;;17.30;17.30;;;;;;4962526;28;20512;-67
2023/04/09 11:52:37;;;;;;;2.90;1.70;;;16.40;18.00;;;;;;4968496;28;20452;-67
2023/04/09 11:55:06;;;;;;;2.53;1.30;;;16.60;18.80;;;;;;4969017;28;20428;-67
2023/04/09 11:57:40;;;;;;;2.70;1.50;;;16.50;18.00;;;;;;4971897;28;20824;-67
2023/04/09 12:00:23;;;;;;;2.87;1.60;;;16.40;18.60;;;;;;4973199;28;20420;-67
2023/04/09 12:02:57;;;;;;;2.80;1.40;;;18.10;19.60;;;;;;4963666;28;20438;-68
2023/04/09 12:05:24;;;;;;;3.00;1.30;;;20.20;16.00;;;;;;4971262;28;20437;-67
2023/04/09 12:07:51;;;;;;;4.77;1.80;;;21.40;14.60;;;;;;4964894;28;20419;-67
2023/04/09 12:10:17;;;;;;;3.60;1.60;;;23.60;12.10;;;;;;4969667;28;20932;-68
2023/04/09 12:12:44;;;;;;;4.03;1.70;;;25.50;10.20;;;;;;4968364;28;20460;-68
2023/04/09 12:15:32;;;;;;;3.57;1.50;;;25.50;9.60;;;;;;4970867;28;20419;-68
2023/04/09 12:17:58;;;;;;;4.00;1.70;;;26.80;9.70;;;;;;4964420;28;20973;-68
2023/04/09 12:20:27;;;;;;;4.93;1.80;;;27.30;9.70;;;;;;4963246;28;20454;-68
2023/04/09 12:22:54;;;;;;;4.17;1.63;;;26.10;10.70;;;;;;4966992;28;20183;-68
2023/04/09 12:25:19;;;;;;;4.80;1.80;;;26.80;8.60;;;;;;4971087;28;20417;-68
2023/04/09 12:27:45;;;;;;;4.23;1.53;;;27.30;6.70;;;;;;4968698;28;20533;-67
2023/04/09 12:30:11;;;;;;;4.80;1.67;;;25.90;7.50;;;;;;4969862;28;20181;-68
2023/04/09 12:32:37;;;;;;;6.13;2.33;;;25.90;7.80;;;;;;4969108;28;20533;-67
2023/04/09 12:35:03;;;;;;;4.70;1.63;;;24.40;8.70;;;;;;4973073;28;20233;-67
2023/04/09 12:37:29;;;;;;;4.90;1.53;;;22.80;10.50;;;;;;4966560;28;20422;-67
2023/04/09 12:39:55;;;;;;;4.47;1.60;;;21.20;12.50;;;;;;4972869;28;20493;-67
2023/04/09 12:42:20;;;;;;;4.63;1.80;;;20.50;13.50;;;;;;4969889;28;20253;-67
2023/04/09 12:44:46;;;;;;;4.30;1.60;;;20.70;12.40;;;;;;4968740;28;20181;-67
2023/04/09 12:47:12;;;;;;;4.10;1.43;;;21.20;11.70;;;;;;4971086;28;20528;-67
2023/04/09 12:49:37;;;;;;;4.90;2.07;;;21.00;11.90;;;;;;4972297;28;20270;-67